sensor_id;sensor_type;location;lat;lon;timestamp;P1;durP1;ratioP1;P2;durP2;ratioP2
62933;SDS011;49038;47.600;19.242;2023-09-19T00:01:55;5.10;;;2.58;;
62933;SDS011;49038;47.600;19.242;2023-09-19T00:04:59;5.40;;;2.62;;
62933;SDS011;49038;47.600;19.242;2023-09-19T00:08:01;3.35;;;2.17;;
62933;SDS011;49038;47.600;19.242;2023-09-19T00:11:06;4.85;;;2.42;;
62933;SDS011;49038;47.600;19.242;2023-09-19T00:14:10;5.55;;;2.37;;
62933;SDS011;49038;47.600;19.242;2023-09-19T00:17:16;3.22;;;2.08;;
62933;SDS011;49038;47.600;19.242;2023-09-19T00:20:18;6.82;;;2.72;;
62933;SDS011;49038;47.600;19.242;2023-09-19T00:23:21;3.92;;;2.65;;
62933;SDS011;49038;47.600;19.242;2023-09-19T00:26:23;4.93;;;2.85;;
62933;SDS011;49038;47.600;19.242;2023-09-19T00:29:25;5.25;;;2.85;;
62933;SDS011;49038;47.600;19.242;2023-09-19T00:32:31;3.65;;;2.50;;
62933;SDS011;49038;47.600;19.242;2023-09-19T00:35:33;5.03;;;2.40;;
62933;SDS011;49038;47.600;19.242;2023-09-19T00:38:35;3.80;;;2.70;;
62933;SDS011;49038;47.600;19.242;2023-09-19T00:41:38;4.50;;;2.53;;
62933;SDS011;49038;47.600;19.242;2023-09-19T00:44:40;4.95;;;2.65;;
62933;SDS011;49038;47.600;19.242;2023-09-19T00:47:47;3.42;;;2.55;;
62933;SDS011;49038;47.600;19.242;2023-09-19T00:50:51;3.80;;;2.58;;
62933;SDS011;49038;47.600;19.242;2023-09-19T00:53:55;5.57;;;2.65;;
62933;SDS011;49038;47.600;19.242;2023-09-19T00:56:58;5.95;;;2.58;;
62933;SDS011;49038;47.600;19.242;2023-09-19T01:00:01;6.90;;;2.42;;
62933;SDS011;49038;47.600;19.242;2023-09-19T01:03:07;4.72;;;2.67;;
62933;SDS011;49038;47.600;19.242;2023-09-19T01:06:10;6.18;;;2.85;;
62933;SDS011;49038;47.600;19.242;2023-09-19T01:09:12;6.95;;;3.17;;
62933;SDS011;49038;47.600;19.242;2023-09-19T01:12:16;3.20;;;2.47;;
62933;SDS011;49038;47.600;19.242;2023-09-19T01:15:28;3.87;;;2.72;;
62933;SDS011;49038;47.600;19.242;2023-09-19T01:21:57;4.68;;;2.60;;
62933;SDS011;49038;47.600;19.242;2023-09-19T01:31:59;3.65;;;2.62;;
62933;SDS011;49038;47.600;19.242;2023-09-19T01:35:05;3.72;;;2.42;;
62933;SDS011;49038;47.600;19.242;2023-09-19T01:38:07;4.95;;;2.40;;
62933;SDS011;49038;47.600;19.242;2023-09-19T01:41:13;5.85;;;2.65;;
62933;SDS011;49038;47.600;19.242;2023-09-19T01:47:53;4.40;;;2.70;;
62933;SDS011;49038;47.600;19.242;2023-09-19T01:51:00;4.82;;;2.78;;
62933;SDS011;49038;47.600;19.242;2023-09-19T01:54:11;3.35;;;2.80;;
62933;SDS011;49038;47.600;19.242;2023-09-19T02:00:16;3.60;;;2.83;;
62933;SDS011;49038;47.600;19.242;2023-09-19T02:03:20;4.85;;;3.10;;
62933;SDS011;49038;47.600;19.242;2023-09-19T02:06:26;3.95;;;2.47;;
62933;SDS011;49038;47.600;19.242;2023-09-19T02:09:28;5.35;;;2.50;;
62933;SDS011;49038;47.600;19.242;2023-09-19T02:12:31;6.53;;;2.60;;
62933;SDS011;49038;47.600;19.242;2023-09-19T02:15:37;5.87;;;3.12;;
62933;SDS011;49038;47.600;19.242;2023-09-19T02:18:40;4.55;;;2.45;;
62933;SDS011;49038;47.600;19.242;2023-09-19T02:21:42;3.58;;;2.65;;
62933;SDS011;49038;47.600;19.242;2023-09-19T02:24:45;5.25;;;2.42;;
62933;SDS011;49038;47.600;19.242;2023-09-19T02:27:49;3.60;;;2.90;;
62933;SDS011;49038;47.600;19.242;2023-09-19T02:30:55;3.03;;;2.30;;
62933;SDS011;49038;47.600;19.242;2023-09-19T02:33:58;8.07;;;2.78;;
62933;SDS011;49038;47.600;19.242;2023-09-19T02:37:05;3.62;;;2.87;;
62933;SDS011;49038;47.600;19.242;2023-09-19T02:40:08;4.82;;;2.80;;
62933;SDS011;49038;47.600;19.242;2023-09-19T02:43:28;3.95;;;2.37;;
62933;SDS011;49038;47.600;19.242;2023-09-19T02:46:31;7.28;;;2.60;;
62933;SDS011;49038;47.600;19.242;2023-09-19T02:49:33;4.05;;;2.50;;
62933;SDS011;49038;47.600;19.242;2023-09-19T02:52:37;3.95;;;2.42;;
62933;SDS011;49038;47.600;19.242;2023-09-19T02:55:39;5.93;;;3.10;;
62933;SDS011;49038;47.600;19.242;2023-09-19T02:58:42;5.10;;;2.92;;
62933;SDS011;49038;47.600;19.242;2023-09-19T03:01:44;8.93;;;3.35;;
62933;SDS011;49038;47.600;19.242;2023-09-19T03:04:50;8.15;;;3.00;;
62933;SDS011;49038;47.600;19.242;2023-09-19T03:07:53;6.62;;;3.05;;
62933;SDS011;49038;47.600;19.242;2023-09-19T03:10:55;4.50;;;2.70;;
62933;SDS011;49038;47.600;19.242;2023-09-19T03:13:57;6.50;;;2.50;;
62933;SDS011;49038;47.600;19.242;2023-09-19T03:17:00;4.12;;;2.53;;
62933;SDS011;49038;47.600;19.242;2023-09-19T03:20:03;4.95;;;3.28;;
62933;SDS011;49038;47.600;19.242;2023-09-19T03:23:06;5.25;;;2.80;;
62933;SDS011;49038;47.600;19.242;2023-09-19T03:26:10;5.53;;;2.78;;
62933;SDS011;49038;47.600;19.242;2023-09-19T03:29:12;4.60;;;2.90;;
62933;SDS011;49038;47.600;19.242;2023-09-19T03:32:15;6.28;;;2.72;;
62933;SDS011;49038;47.600;19.242;2023-09-19T03:35:17;6.03;;;3.15;;
62933;SDS011;49038;47.600;19.242;2023-09-19T03:38:20;6.78;;;3.25;;
62933;SDS011;49038;47.600;19.242;2023-09-19T03:41:23;5.07;;;2.72;;
62933;SDS011;49038;47.600;19.242;2023-09-19T03:44:25;7.30;;;3.00;;
62933;SDS011;49038;47.600;19.242;2023-09-19T03:47:28;4.25;;;2.80;;
62933;SDS011;49038;47.600;19.242;2023-09-19T03:50:30;10.02;;;3.10;;
62933;SDS011;49038;47.600;19.242;2023-09-19T03:53:32;5.90;;;3.17;;
62933;SDS011;49038;47.600;19.242;2023-09-19T03:56:34;5.70;;;3.10;;
62933;SDS011;49038;47.600;19.242;2023-09-19T03:59:37;4.22;;;3.15;;
62933;SDS011;49038;47.600;19.242;2023-09-19T04:02:39;4.60;;;2.90;;
62933;SDS011;49038;47.600;19.242;2023-09-19T04:05:42;13.18;;;3.53;;
62933;SDS011;49038;47.600;19.242;2023-09-19T04:08:44;7.30;;;3.22;;
62933;SDS011;49038;47.600;19.242;2023-09-19T04:11:48;8.57;;;3.65;;
62933;SDS011;49038;47.600;19.242;2023-09-19T04:14:51;4.55;;;3.25;;
62933;SDS011;49038;47.600;19.242;2023-09-19T04:17:54;6.90;;;3.10;;
62933;SDS011;49038;47.600;19.242;2023-09-19T04:20:56;5.20;;;3.20;;
62933;SDS011;49038;47.600;19.242;2023-09-19T04:23:58;7.22;;;3.62;;
62933;SDS011;49038;47.600;19.242;2023-09-19T04:27:01;7.55;;;3.60;;
62933;SDS011;49038;47.600;19.242;2023-09-19T04:30:04;6.75;;;3.37;;
62933;SDS011;49038;47.600;19.242;2023-09-19T04:33:12;5.75;;;3.30;;
62933;SDS011;49038;47.600;19.242;2023-09-19T04:36:16;5.60;;;3.28;;
62933;SDS011;49038;47.600;19.242;2023-09-19T04:39:37;4.95;;;3.30;;
62933;SDS011;49038;47.600;19.242;2023-09-19T04:42:40;6.37;;;4.00;;
62933;SDS011;49038;47.600;19.242;2023-09-19T04:45:43;11.70;;;3.62;;
62933;SDS011;49038;47.600;19.242;2023-09-19T04:48:45;5.32;;;3.28;;
62933;SDS011;49038;47.600;19.242;2023-09-19T04:51:48;6.95;;;2.80;;
62933;SDS011;49038;47.600;19.242;2023-09-19T04:54:50;7.03;;;2.72;;
62933;SDS011;49038;47.600;19.242;2023-09-19T04:57:52;2.72;;;1.75;;
62933;SDS011;49038;47.600;19.242;2023-09-19T05:00:55;4.93;;;2.17;;
62933;SDS011;49038;47.600;19.242;2023-09-19T05:03:58;3.28;;;2.00;;
62933;SDS011;49038;47.600;19.242;2023-09-19T05:07:00;5.07;;;1.98;;
62933;SDS011;49038;47.600;19.242;2023-09-19T05:10:03;2.97;;;1.58;;
62933;SDS011;49038;47.600;19.242;2023-09-19T05:13:09;2.35;;;1.33;;
62933;SDS011;49038;47.600;19.242;2023-09-19T05:16:12;1.40;;;1.27;;
62933;SDS011;49038;47.600;19.242;2023-09-19T05:19:14;3.62;;;1.00;;
62933;SDS011;49038;47.600;19.242;2023-09-19T05:22:16;3.62;;;1.08;;
62933;SDS011;49038;47.600;19.242;2023-09-19T05:25:20;4.93;;;1.45;;
62933;SDS011;49038;47.600;19.242;2023-09-19T05:28:22;1.77;;;0.80;;
62933;SDS011;49038;47.600;19.242;2023-09-19T05:31:25;3.78;;;0.90;;
62933;SDS011;49038;47.600;19.242;2023-09-19T05:34:27;2.28;;;0.90;;
62933;SDS011;49038;47.600;19.242;2023-09-19T05:37:32;1.52;;;0.98;;
62933;SDS011;49038;47.600;19.242;2023-09-19T05:40:34;2.50;;;0.70;;
62933;SDS011;49038;47.600;19.242;2023-09-19T05:43:37;1.73;;;0.60;;
62933;SDS011;49038;47.600;19.242;2023-09-19T05:46:39;1.70;;;1.00;;
62933;SDS011;49038;47.600;19.242;2023-09-19T05:49:42;1.80;;;0.70;;
62933;SDS011;49038;47.600;19.242;2023-09-19T05:52:47;0.60;;;0.60;;
62933;SDS011;49038;47.600;19.242;2023-09-19T05:55:54;1.20;;;0.55;;
62933;SDS011;49038;47.600;19.242;2023-09-19T05:58:57;0.55;;;0.43;;
62933;SDS011;49038;47.600;19.242;2023-09-19T06:02:00;0.47;;;0.47;;
62933;SDS011;49038;47.600;19.242;2023-09-19T06:05:02;1.00;;;0.57;;
62933;SDS011;49038;47.600;19.242;2023-09-19T06:08:06;1.25;;;0.52;;
62933;SDS011;49038;47.600;19.242;2023-09-19T06:11:10;0.50;;;0.50;;
62933;SDS011;49038;47.600;19.242;2023-09-19T06:14:12;0.52;;;0.45;;
62933;SDS011;49038;47.600;19.242;2023-09-19T06:17:15;0.45;;;0.40;;
62933;SDS011;49038;47.600;19.242;2023-09-19T06:20:17;2.62;;;0.60;;
62933;SDS011;49038;47.600;19.242;2023-09-19T06:23:22;0.90;;;0.40;;
62933;SDS011;49038;47.600;19.242;2023-09-19T06:26:24;0.60;;;0.50;;
62933;SDS011;49038;47.600;19.242;2023-09-19T06:29:29;0.50;;;0.40;;
62933;SDS011;49038;47.600;19.242;2023-09-19T06:32:31;0.95;;;0.73;;
62933;SDS011;49038;47.600;19.242;2023-09-19T06:35:33;0.40;;;0.40;;
62933;SDS011;49038;47.600;19.242;2023-09-19T06:38:36;1.58;;;0.60;;
62933;SDS011;49038;47.600;19.242;2023-09-19T06:41:39;0.75;;;0.45;;
62933;SDS011;49038;47.600;19.242;2023-09-19T06:44:43;1.75;;;0.50;;
62933;SDS011;49038;47.600;19.242;2023-09-19T06:47:45;0.93;;;0.52;;
62933;SDS011;49038;47.600;19.242;2023-09-19T06:50:58;0.45;;;0.45;;
62933;SDS011;49038;47.600;19.242;2023-09-19T06:54:02;0.40;;;0.40;;
62933;SDS011;49038;47.600;19.242;2023-09-19T06:57:07;0.50;;;0.50;;
62933;SDS011;49038;47.600;19.242;2023-09-19T07:00:12;2.78;;;0.50;;
62933;SDS011;49038;47.600;19.242;2023-09-19T07:03:20;0.47;;;0.47;;
62933;SDS011;49038;47.600;19.242;2023-09-19T07:06:25;0.40;;;0.40;;
62933;SDS011;49038;47.600;19.242;2023-09-19T07:09:27;0.40;;;0.40;;
62933;SDS011;49038;47.600;19.242;2023-09-19T07:12:29;0.68;;;0.55;;
62933;SDS011;49038;47.600;19.242;2023-09-19T07:15:32;0.65;;;0.50;;
62933;SDS011;49038;47.600;19.242;2023-09-19T07:18:41;0.50;;;0.50;;
62933;SDS011;49038;47.600;19.242;2023-09-19T07:21:46;0.37;;;0.37;;
62933;SDS011;49038;47.600;19.242;2023-09-19T07:24:49;0.37;;;0.37;;
62933;SDS011;49038;47.600;19.242;2023-09-19T07:27:51;0.40;;;0.40;;
62933;SDS011;49038;47.600;19.242;2023-09-19T07:30:54;0.40;;;0.40;;
62933;SDS011;49038;47.600;19.242;2023-09-19T07:33:56;0.35;;;0.35;;
62933;SDS011;49038;47.600;19.242;2023-09-19T07:36:58;0.85;;;0.50;;
62933;SDS011;49038;47.600;19.242;2023-09-19T07:40:00;0.45;;;0.45;;
62933;SDS011;49038;47.600;19.242;2023-09-19T07:43:03;0.43;;;0.43;;
62933;SDS011;49038;47.600;19.242;2023-09-19T07:46:07;0.40;;;0.40;;
62933;SDS011;49038;47.600;19.242;2023-09-19T07:49:11;0.50;;;0.50;;
62933;SDS011;49038;47.600;19.242;2023-09-19T07:52:13;0.40;;;0.40;;
62933;SDS011;49038;47.600;19.242;2023-09-19T07:55:17;0.30;;;0.30;;
62933;SDS011;49038;47.600;19.242;2023-09-19T07:58:22;0.52;;;0.50;;
62933;SDS011;49038;47.600;19.242;2023-09-19T08:01:24;0.37;;;0.37;;
62933;SDS011;49038;47.600;19.242;2023-09-19T08:04:29;0.52;;;0.40;;
62933;SDS011;49038;47.600;19.242;2023-09-19T08:07:38;0.40;;;0.40;;
62933;SDS011;49038;47.600;19.242;2023-09-19T08:10:41;0.40;;;0.40;;
62933;SDS011;49038;47.600;19.242;2023-09-19T08:13:47;0.40;;;0.40;;
62933;SDS011;49038;47.600;19.242;2023-09-19T08:16:51;0.98;;;0.50;;
62933;SDS011;49038;47.600;19.242;2023-09-19T08:19:53;0.40;;;0.40;;
62933;SDS011;49038;47.600;19.242;2023-09-19T08:22:56;0.75;;;0.45;;
62933;SDS011;49038;47.600;19.242;2023-09-19T08:25:58;2.42;;;0.52;;
62933;SDS011;49038;47.600;19.242;2023-09-19T08:29:03;0.60;;;0.50;;
62933;SDS011;49038;47.600;19.242;2023-09-19T08:32:09;0.60;;;0.50;;
62933;SDS011;49038;47.600;19.242;2023-09-19T08:35:11;0.50;;;0.50;;
62933;SDS011;49038;47.600;19.242;2023-09-19T08:38:14;1.62;;;0.50;;
62933;SDS011;49038;47.600;19.242;2023-09-19T08:41:17;0.40;;;0.40;;
62933;SDS011;49038;47.600;19.242;2023-09-19T08:44:20;0.70;;;0.70;;
62933;SDS011;49038;47.600;19.242;2023-09-19T08:47:33;1.40;;;0.60;;
62933;SDS011;49038;47.600;19.242;2023-09-19T08:50:57;0.50;;;0.50;;
62933;SDS011;49038;47.600;19.242;2023-09-19T08:54:12;0.90;;;0.57;;
62933;SDS011;49038;47.600;19.242;2023-09-19T08:57:24;1.23;;;0.73;;
62933;SDS011;49038;47.600;19.242;2023-09-19T09:00:27;1.60;;;0.65;;
62933;SDS011;49038;47.600;19.242;2023-09-19T09:03:32;3.40;;;0.70;;
62933;SDS011;49038;47.600;19.242;2023-09-19T09:06:36;0.73;;;0.70;;
62933;SDS011;49038;47.600;19.242;2023-09-19T09:09:39;1.50;;;0.70;;
62933;SDS011;49038;47.600;19.242;2023-09-19T09:12:44;0.95;;;0.85;;
62933;SDS011;49038;47.600;19.242;2023-09-19T09:15:47;0.80;;;0.73;;
62933;SDS011;49038;47.600;19.242;2023-09-19T09:18:50;0.70;;;0.60;;
62933;SDS011;49038;47.600;19.242;2023-09-19T09:21:57;1.17;;;0.65;;
62933;SDS011;49038;47.600;19.242;2023-09-19T09:25:13;1.73;;;0.77;;
62933;SDS011;49038;47.600;19.242;2023-09-19T09:28:19;3.87;;;0.82;;
62933;SDS011;49038;47.600;19.242;2023-09-19T09:31:26;0.67;;;0.63;;
62933;SDS011;49038;47.600;19.242;2023-09-19T09:34:34;1.12;;;0.60;;
62933;SDS011;49038;47.600;19.242;2023-09-19T09:37:36;1.60;;;0.90;;
62933;SDS011;49038;47.600;19.242;2023-09-19T09:40:47;1.15;;;0.80;;
62933;SDS011;49038;47.600;19.242;2023-09-19T09:43:56;3.20;;;0.85;;
62933;SDS011;49038;47.600;19.242;2023-09-19T09:47:01;2.12;;;1.00;;
62933;SDS011;49038;47.600;19.242;2023-09-19T09:50:26;1.35;;;0.70;;
62933;SDS011;49038;47.600;19.242;2023-09-19T09:53:31;1.40;;;0.60;;
62933;SDS011;49038;47.600;19.242;2023-09-19T09:56:34;4.03;;;0.73;;
62933;SDS011;49038;47.600;19.242;2023-09-19T09:59:43;1.05;;;0.77;;
62933;SDS011;49038;47.600;19.242;2023-09-19T10:02:57;1.42;;;0.50;;
62933;SDS011;49038;47.600;19.242;2023-09-19T10:06:00;1.23;;;0.73;;
62933;SDS011;49038;47.600;19.242;2023-09-19T10:09:10;3.78;;;0.95;;
62933;SDS011;49038;47.600;19.242;2023-09-19T10:12:14;16.10;;;0.90;;
62933;SDS011;49038;47.600;19.242;2023-09-19T10:15:18;1.20;;;0.70;;
62933;SDS011;49038;47.600;19.242;2023-09-19T10:18:27;4.05;;;0.80;;
62933;SDS011;49038;47.600;19.242;2023-09-19T10:21:32;3.25;;;0.60;;
62933;SDS011;49038;47.600;19.242;2023-09-19T10:24:35;0.70;;;0.70;;
62933;SDS011;49038;47.600;19.242;2023-09-19T10:27:50;1.70;;;0.80;;
62933;SDS011;49038;47.600;19.242;2023-09-19T10:30:52;0.68;;;0.60;;
62933;SDS011;49038;47.600;19.242;2023-09-19T10:33:55;1.25;;;0.60;;
62933;SDS011;49038;47.600;19.242;2023-09-19T10:36:57;1.45;;;0.90;;
62933;SDS011;49038;47.600;19.242;2023-09-19T10:40:04;0.55;;;0.55;;
62933;SDS011;49038;47.600;19.242;2023-09-19T10:43:17;2.17;;;0.77;;
62933;SDS011;49038;47.600;19.242;2023-09-19T10:46:21;3.08;;;0.80;;
62933;SDS011;49038;47.600;19.242;2023-09-19T10:49:23;0.82;;;0.70;;
62933;SDS011;49038;47.600;19.242;2023-09-19T10:52:26;1.02;;;0.80;;
62933;SDS011;49038;47.600;19.242;2023-09-19T10:55:29;0.60;;;0.60;;
62933;SDS011;49038;47.600;19.242;2023-09-19T10:58:35;0.85;;;0.80;;
62933;SDS011;49038;47.600;19.242;2023-09-19T11:01:41;1.10;;;0.73;;
62933;SDS011;49038;47.600;19.242;2023-09-19T11:04:53;0.80;;;0.80;;
62933;SDS011;49038;47.600;19.242;2023-09-19T11:07:57;3.15;;;2.15;;
62933;SDS011;49038;47.600;19.242;2023-09-19T11:11:00;3.95;;;1.20;;
62933;SDS011;49038;47.600;19.242;2023-09-19T11:17:35;2.33;;;1.98;;
62933;SDS011;49038;47.600;19.242;2023-09-19T11:20:44;1.95;;;1.35;;
62933;SDS011;49038;47.600;19.242;2023-09-19T11:27:14;1.60;;;1.50;;
62933;SDS011;49038;47.600;19.242;2023-09-19T11:30:25;1.67;;;1.30;;
62933;SDS011;49038;47.600;19.242;2023-09-19T11:33:29;2.75;;;1.30;;
62933;SDS011;49038;47.600;19.242;2023-09-19T11:36:43;1.48;;;1.17;;
62933;SDS011;49038;47.600;19.242;2023-09-19T11:43:45;2.25;;;0.85;;
62933;SDS011;49038;47.600;19.242;2023-09-19T11:49:54;1.00;;;0.88;;
62933;SDS011;49038;47.600;19.242;2023-09-19T11:52:57;1.60;;;1.10;;
62933;SDS011;49038;47.600;19.242;2023-09-19T11:55:59;1.10;;;0.70;;
62933;SDS011;49038;47.600;19.242;2023-09-19T11:59:02;0.65;;;0.65;;
62933;SDS011;49038;47.600;19.242;2023-09-19T12:02:06;0.90;;;0.62;;
62933;SDS011;49038;47.600;19.242;2023-09-19T12:05:10;0.57;;;0.57;;
62933;SDS011;49038;47.600;19.242;2023-09-19T12:08:14;1.85;;;0.88;;
62933;SDS011;49038;47.600;19.242;2023-09-19T12:11:18;0.50;;;0.50;;
62933;SDS011;49038;47.600;19.242;2023-09-19T12:14:22;2.80;;;1.12;;
62933;SDS011;49038;47.600;19.242;2023-09-19T12:17:37;1.73;;;0.62;;
62933;SDS011;49038;47.600;19.242;2023-09-19T12:20:44;3.30;;;0.73;;
62933;SDS011;49038;47.600;19.242;2023-09-19T12:23:58;0.70;;;0.50;;
62933;SDS011;49038;47.600;19.242;2023-09-19T12:27:15;0.65;;;0.60;;
62933;SDS011;49038;47.600;19.242;2023-09-19T12:30:17;1.05;;;0.70;;
62933;SDS011;49038;47.600;19.242;2023-09-19T12:33:29;0.90;;;0.52;;
62933;SDS011;49038;47.600;19.242;2023-09-19T12:36:32;0.60;;;0.60;;
62933;SDS011;49038;47.600;19.242;2023-09-19T12:39:36;0.73;;;0.70;;
62933;SDS011;49038;47.600;19.242;2023-09-19T12:42:39;0.95;;;0.85;;
62933;SDS011;49038;47.600;19.242;2023-09-19T12:45:43;1.58;;;0.75;;
62933;SDS011;49038;47.600;19.242;2023-09-19T12:48:47;0.70;;;0.65;;
62933;SDS011;49038;47.600;19.242;2023-09-19T12:51:51;1.20;;;0.70;;
62933;SDS011;49038;47.600;19.242;2023-09-19T12:54:56;2.58;;;1.10;;
62933;SDS011;49038;47.600;19.242;2023-09-19T12:58:09;1.27;;;0.73;;
62933;SDS011;49038;47.600;19.242;2023-09-19T13:01:14;2.78;;;0.88;;
62933;SDS011;49038;47.600;19.242;2023-09-19T13:04:18;1.90;;;0.80;;
62933;SDS011;49038;47.600;19.242;2023-09-19T13:11:03;1.27;;;1.17;;
62933;SDS011;49038;47.600;19.242;2023-09-19T13:14:16;2.55;;;1.10;;
62933;SDS011;49038;47.600;19.242;2023-09-19T13:17:23;1.77;;;1.10;;
62933;SDS011;49038;47.600;19.242;2023-09-19T13:20:26;0.98;;;0.95;;
62933;SDS011;49038;47.600;19.242;2023-09-19T13:23:34;1.20;;;1.02;;
62933;SDS011;49038;47.600;19.242;2023-09-19T13:26:36;1.35;;;1.05;;
62933;SDS011;49038;47.600;19.242;2023-09-19T13:29:40;1.30;;;1.05;;
62933;SDS011;49038;47.600;19.242;2023-09-19T13:32:43;3.33;;;1.40;;
62933;SDS011;49038;47.600;19.242;2023-09-19T13:35:46;2.08;;;1.25;;
62933;SDS011;49038;47.600;19.242;2023-09-19T13:38:50;4.00;;;1.10;;
62933;SDS011;49038;47.600;19.242;2023-09-19T13:41:55;1.20;;;1.10;;
62933;SDS011;49038;47.600;19.242;2023-09-19T13:44:57;1.85;;;1.00;;
62933;SDS011;49038;47.600;19.242;2023-09-19T13:47:59;1.95;;;1.00;;
62933;SDS011;49038;47.600;19.242;2023-09-19T13:51:02;1.45;;;1.00;;
62933;SDS011;49038;47.600;19.242;2023-09-19T13:54:07;0.90;;;0.90;;
62933;SDS011;49038;47.600;19.242;2023-09-19T13:57:10;1.12;;;1.00;;
62933;SDS011;49038;47.600;19.242;2023-09-19T14:00:12;1.87;;;0.98;;
62933;SDS011;49038;47.600;19.242;2023-09-19T14:03:17;1.25;;;1.00;;
62933;SDS011;49038;47.600;19.242;2023-09-19T14:06:22;1.58;;;1.00;;
62933;SDS011;49038;47.600;19.242;2023-09-19T14:09:24;1.20;;;1.10;;
62933;SDS011;49038;47.600;19.242;2023-09-19T14:12:27;0.93;;;0.90;;
62933;SDS011;49038;47.600;19.242;2023-09-19T14:15:29;1.92;;;0.95;;
62933;SDS011;49038;47.600;19.242;2023-09-19T14:18:32;2.03;;;1.83;;
62933;SDS011;49038;47.600;19.242;2023-09-19T14:21:34;2.22;;;1.10;;
62933;SDS011;49038;47.600;19.242;2023-09-19T14:24:38;1.87;;;1.00;;
62933;SDS011;49038;47.600;19.242;2023-09-19T14:27:40;2.20;;;1.00;;
62933;SDS011;49038;47.600;19.242;2023-09-19T14:30:43;1.40;;;1.00;;
62933;SDS011;49038;47.600;19.242;2023-09-19T14:33:45;1.35;;;1.08;;
62933;SDS011;49038;47.600;19.242;2023-09-19T14:36:47;1.10;;;0.90;;
62933;SDS011;49038;47.600;19.242;2023-09-19T14:39:50;1.17;;;1.08;;
62933;SDS011;49038;47.600;19.242;2023-09-19T14:42:53;1.10;;;0.85;;
62933;SDS011;49038;47.600;19.242;2023-09-19T14:45:56;4.28;;;1.10;;
62933;SDS011;49038;47.600;19.242;2023-09-19T14:49:02;1.15;;;1.05;;
62933;SDS011;49038;47.600;19.242;2023-09-19T14:52:09;2.20;;;1.05;;
62933;SDS011;49038;47.600;19.242;2023-09-19T14:55:14;1.52;;;1.00;;
62933;SDS011;49038;47.600;19.242;2023-09-19T14:58:17;1.20;;;1.00;;
62933;SDS011;49038;47.600;19.242;2023-09-19T15:01:20;1.55;;;0.80;;
62933;SDS011;49038;47.600;19.242;2023-09-19T15:04:22;1.35;;;1.00;;
62933;SDS011;49038;47.600;19.242;2023-09-19T15:07:24;1.48;;;0.75;;
62933;SDS011;49038;47.600;19.242;2023-09-19T15:10:28;1.33;;;0.90;;
62933;SDS011;49038;47.600;19.242;2023-09-19T15:13:31;0.80;;;0.80;;
62933;SDS011;49038;47.600;19.242;2023-09-19T15:16:34;1.00;;;0.80;;
62933;SDS011;49038;47.600;19.242;2023-09-19T15:19:37;0.60;;;0.60;;
62933;SDS011;49038;47.600;19.242;2023-09-19T15:22:40;2.25;;;0.80;;
62933;SDS011;49038;47.600;19.242;2023-09-19T15:25:47;1.77;;;0.70;;
62933;SDS011;49038;47.600;19.242;2023-09-19T15:28:50;0.65;;;0.62;;
62933;SDS011;49038;47.600;19.242;2023-09-19T15:31:53;1.33;;;0.90;;
62933;SDS011;49038;47.600;19.242;2023-09-19T15:34:59;0.85;;;0.73;;
62933;SDS011;49038;47.600;19.242;2023-09-19T15:38:01;2.72;;;1.33;;
62933;SDS011;49038;47.600;19.242;2023-09-19T15:41:04;1.27;;;1.00;;
62933;SDS011;49038;47.600;19.242;2023-09-19T15:44:12;1.10;;;0.70;;
62933;SDS011;49038;47.600;19.242;2023-09-19T15:47:15;1.83;;;0.95;;
62933;SDS011;49038;47.600;19.242;2023-09-19T15:50:18;2.53;;;0.68;;
62933;SDS011;49038;47.600;19.242;2023-09-19T15:53:21;0.80;;;0.60;;
62933;SDS011;49038;47.600;19.242;2023-09-19T15:56:25;1.02;;;0.80;;
62933;SDS011;49038;47.600;19.242;2023-09-19T15:59:28;3.65;;;0.90;;
62933;SDS011;49038;47.600;19.242;2023-09-19T16:02:32;0.70;;;0.68;;
62933;SDS011;49038;47.600;19.242;2023-09-19T16:05:35;1.33;;;0.82;;
62933;SDS011;49038;47.600;19.242;2023-09-19T16:08:42;2.37;;;1.10;;
62933;SDS011;49038;47.600;19.242;2023-09-19T16:11:45;0.80;;;0.80;;
62933;SDS011;49038;47.600;19.242;2023-09-19T16:14:48;0.80;;;0.80;;
62933;SDS011;49038;47.600;19.242;2023-09-19T16:17:51;1.50;;;0.65;;
62933;SDS011;49038;47.600;19.242;2023-09-19T16:20:53;1.02;;;0.90;;
62933;SDS011;49038;47.600;19.242;2023-09-19T16:23:57;1.05;;;0.90;;
62933;SDS011;49038;47.600;19.242;2023-09-19T16:27:00;1.60;;;0.93;;
62933;SDS011;49038;47.600;19.242;2023-09-19T16:30:02;1.17;;;0.90;;
62933;SDS011;49038;47.600;19.242;2023-09-19T16:33:05;1.30;;;0.80;;
62933;SDS011;49038;47.600;19.242;2023-09-19T16:36:11;1.30;;;0.80;;
62933;SDS011;49038;47.600;19.242;2023-09-19T16:39:14;0.75;;;0.70;;
62933;SDS011;49038;47.600;19.242;2023-09-19T16:42:17;2.42;;;0.88;;
62933;SDS011;49038;47.600;19.242;2023-09-19T16:45:22;2.50;;;1.00;;
62933;SDS011;49038;47.600;19.242;2023-09-19T16:48:25;1.83;;;0.90;;
62933;SDS011;49038;47.600;19.242;2023-09-19T16:51:28;3.17;;;2.08;;
62933;SDS011;49038;47.600;19.242;2023-09-19T16:54:30;1.10;;;0.70;;
62933;SDS011;49038;47.600;19.242;2023-09-19T16:57:33;1.00;;;0.80;;
62933;SDS011;49038;47.600;19.242;2023-09-19T17:00:36;1.15;;;1.00;;
62933;SDS011;49038;47.600;19.242;2023-09-19T17:03:41;1.98;;;1.00;;
62933;SDS011;49038;47.600;19.242;2023-09-19T17:06:43;1.50;;;1.00;;
62933;SDS011;49038;47.600;19.242;2023-09-19T17:09:48;1.10;;;0.80;;
62933;SDS011;49038;47.600;19.242;2023-09-19T17:12:53;1.25;;;1.12;;
62933;SDS011;49038;47.600;19.242;2023-09-19T17:16:00;5.15;;;1.30;;
62933;SDS011;49038;47.600;19.242;2023-09-19T17:19:07;5.65;;;1.27;;
62933;SDS011;49038;47.600;19.242;2023-09-19T17:22:10;2.35;;;1.52;;
62933;SDS011;49038;47.600;19.242;2023-09-19T17:25:12;2.25;;;1.10;;
62933;SDS011;49038;47.600;19.242;2023-09-19T17:28:15;1.20;;;0.90;;
62933;SDS011;49038;47.600;19.242;2023-09-19T17:31:21;3.83;;;1.02;;
62933;SDS011;49038;47.600;19.242;2023-09-19T17:34:25;3.35;;;1.02;;
62933;SDS011;49038;47.600;19.242;2023-09-19T17:37:27;2.15;;;1.50;;
62933;SDS011;49038;47.600;19.242;2023-09-19T17:40:29;1.37;;;0.85;;
62933;SDS011;49038;47.600;19.242;2023-09-19T17:43:32;3.75;;;1.25;;
62933;SDS011;49038;47.600;19.242;2023-09-19T17:46:36;1.65;;;1.20;;
62933;SDS011;49038;47.600;19.242;2023-09-19T17:49:40;1.80;;;1.20;;
62933;SDS011;49038;47.600;19.242;2023-09-19T17:52:43;2.30;;;1.25;;
62933;SDS011;49038;47.600;19.242;2023-09-19T17:55:46;7.65;;;1.37;;
62933;SDS011;49038;47.600;19.242;2023-09-19T17:58:53;1.50;;;1.08;;
62933;SDS011;49038;47.600;19.242;2023-09-19T18:02:00;2.47;;;1.10;;
62933;SDS011;49038;47.600;19.242;2023-09-19T18:05:03;1.33;;;1.20;;
62933;SDS011;49038;47.600;19.242;2023-09-19T18:08:06;2.50;;;1.25;;
62933;SDS011;49038;47.600;19.242;2023-09-19T18:11:15;2.08;;;1.30;;
62933;SDS011;49038;47.600;19.242;2023-09-19T18:14:21;3.15;;;1.05;;
62933;SDS011;49038;47.600;19.242;2023-09-19T18:17:23;3.00;;;1.20;;
62933;SDS011;49038;47.600;19.242;2023-09-19T18:20:26;3.05;;;1.40;;
62933;SDS011;49038;47.600;19.242;2023-09-19T18:23:28;1.85;;;1.25;;
62933;SDS011;49038;47.600;19.242;2023-09-19T18:26:32;4.10;;;1.33;;
62933;SDS011;49038;47.600;19.242;2023-09-19T18:29:35;2.28;;;1.37;;
62933;SDS011;49038;47.600;19.242;2023-09-19T18:32:38;1.90;;;1.40;;
62933;SDS011;49038;47.600;19.242;2023-09-19T18:35:42;3.65;;;1.58;;
62933;SDS011;49038;47.600;19.242;2023-09-19T18:38:44;1.50;;;1.27;;
62933;SDS011;49038;47.600;19.242;2023-09-19T18:41:50;1.33;;;1.10;;
62933;SDS011;49038;47.600;19.242;2023-09-19T18:44:53;2.10;;;1.40;;
62933;SDS011;49038;47.600;19.242;2023-09-19T18:47:55;2.08;;;1.40;;